Meteo Giornale » Osservazioni meteo Stati Uniti (USA) » Wiscasset

ore: 18:53 - Osservazioni Meteo Wiscasset
Lat. 43° 57' N Lon. 69° 42' W Alt. 20 metri s.l.m.

sereno

21 °C

Sereno

Temp. 24 Ore

13 °C

26 °C

Sud/Sud-Ovest

7.4 Km/h

Dew point 11 °C

Umidità 52 %

Visibilità  10 Km

Il sole sorge alle ore 06:01

Il sole tramonta alle ore 19:16

Data e Ora Cielo e Fenomeni T °C DP °C Um. % Pres. hPa Vis. km Vento km/h
Oggi h: 18:53 sereno Sereno 21 11 52 1018 10 S/SO 7.4
Oggi h: 17:53 sereno Sereno 22 10 46 1018 10 S 11.1
Oggi h: 16:53 sereno Sereno 23 10 43 1018 10 S 11.1
Oggi h: 15:53 sereno Sereno 25 9 36 1018 10 S/SE 14.8
Oggi h: 14:53 sereno Sereno 26 8 31 1018 10 N 5.5
Oggi h: 13:53 sereno Sereno 25 8 33 1019 10 N 5.5
Oggi h: 12:53 sereno Sereno 24 9 38 1020 10 N 5.5
Oggi h: 11:53 sereno Sereno 22 9 43 1020 10 N 5.5
Oggi h: 10:53 sereno Sereno 21 11 52 1021 10 N 9.3
Oggi h: 09:53 sereno Sereno 19 11 59 1021 10 N 9.3
Oggi h: 08:53 sereno Sereno 18 13 72 1020 10 N 7.4
Oggi h: 07:53 sereno Sereno 16 13 82 1020 10 N 5.5
Oggi h: 06:53 sereno Sereno 13 12 93 1020 10 N 0
Oggi h: 05:53 sereno Sereno 13 11 87 1019 10 N 0
Oggi h: 04:53 sereno Sereno 13 11 87 1018 11 N 0
Oggi h: 03:53 sereno Sereno 14 12 87 1018 10 N 0
Oggi h: 02:53 sereno Sereno 14 12 87 1018 10 N 0
Oggi h: 01:53 sereno Sereno 15 13 87 1017 10 N 0
Oggi h: 00:53 sereno Sereno 16 14 87 1017 10 N 0
Ieri h: 23:53 sereno Sereno 16 14 87 1017 10 N 0
Ieri h: 22:53 coperto_pioggia Pioggia 17 15 88 1017 10 N 0
Ieri h: 21:53 coperto_pioggia Pioggia 18 14 77 1017 8 N 9.3
Ieri h: 20:53 coperto Coperto 20 17 82 1015 10 N 0
Ieri h: 19:53 coperto Coperto 22 16 68 1015 10 N 5.5